createdAt,value
2019-05-13T00:00:16.195Z,1.37
2019-05-13T00:02:49.147Z,1.80
2019-05-13T00:05:19.242Z,1.47
2019-05-13T00:07:48.355Z,1.50
2019-05-13T00:10:18.556Z,1.50
2019-05-13T00:12:47.628Z,1.30
2019-05-13T00:15:16.790Z,1.97
2019-05-13T00:17:45.880Z,1.30
2019-05-13T00:20:15.816Z,1.77
2019-05-13T00:22:45.080Z,1.83
2019-05-13T00:25:14.708Z,1.60
2019-05-13T00:27:44.686Z,1.65
2019-05-13T00:30:14.558Z,1.87
2019-05-13T00:32:44.534Z,1.60
2019-05-13T00:35:14.905Z,1.45
2019-05-13T00:37:44.561Z,1.63
2019-05-13T00:40:14.375Z,1.80
2019-05-13T00:42:44.336Z,1.63
2019-05-13T00:45:14.774Z,1.63
2019-05-13T00:47:44.026Z,1.70
2019-05-13T00:50:14.448Z,2.03
2019-05-13T00:52:44.880Z,1.67
2019-05-13T00:55:14.963Z,1.87
2019-05-13T00:57:44.348Z,1.60
2019-05-13T01:00:14.132Z,1.50
2019-05-13T01:02:44.694Z,1.97
2019-05-13T01:05:14.646Z,1.93
2019-05-13T01:07:45.468Z,1.70
2019-05-13T01:10:14.965Z,1.83
2019-05-13T01:12:45.780Z,2.10
2019-05-13T01:15:14.960Z,2.10
2019-05-13T01:17:44.758Z,1.70
2019-05-13T01:20:14.822Z,1.82
2019-05-13T01:22:44.336Z,1.90
2019-05-13T01:25:14.723Z,1.87
2019-05-13T01:27:44.449Z,1.97
2019-05-13T01:30:13.911Z,2.10
2019-05-13T01:32:44.885Z,1.73
2019-05-13T01:35:14.886Z,1.70
2019-05-13T01:37:46.186Z,1.70
2019-05-13T01:40:16.655Z,2.10
2019-05-13T01:42:46.036Z,1.70
2019-05-13T01:45:15.302Z,1.93
2019-05-13T01:47:44.440Z,1.87
2019-05-13T01:50:14.437Z,1.85
2019-05-13T01:52:44.548Z,2.00
2019-05-13T01:55:16.267Z,2.00
2019-05-13T01:57:45.336Z,1.87
2019-05-13T02:00:14.488Z,1.83
2019-05-13T02:02:44.491Z,2.23
2019-05-13T02:05:15.076Z,2.10
2019-05-13T02:07:56.853Z,1.93
2019-05-13T02:10:17.119Z,2.40
2019-05-13T02:12:46.312Z,2.20
2019-05-13T02:15:15.475Z,1.77
2019-05-13T02:17:45.002Z,1.87
2019-05-13T02:20:14.987Z,1.87
2019-05-13T02:22:44.948Z,1.80
2019-05-13T02:25:14.182Z,2.03
2019-05-13T02:27:44.005Z,2.00
2019-05-13T02:30:16.229Z,1.80
2019-05-13T02:32:45.124Z,2.23
2019-05-13T02:35:15.390Z,2.10
2019-05-13T02:37:44.769Z,2.03
2019-05-13T02:40:14.027Z,3.60
2019-05-13T02:42:43.930Z,2.50
2019-05-13T02:45:13.460Z,2.10
2019-05-13T02:47:44.161Z,2.37
2019-05-13T02:50:13.867Z,2.00
2019-05-13T02:52:44.474Z,2.13
2019-05-13T02:55:13.861Z,1.83
2019-05-13T02:57:43.908Z,2.30
2019-05-13T03:00:13.619Z,2.60
2019-05-13T03:02:43.706Z,2.20
2019-05-13T03:05:14.120Z,2.77
2019-05-13T03:07:43.479Z,2.17
2019-05-13T03:10:14.058Z,2.17
2019-05-13T03:12:43.610Z,2.10
2019-05-13T03:15:13.745Z,2.70
2019-05-13T03:18:05.286Z,1.93
2019-05-13T03:20:35.420Z,2.10
2019-05-13T03:23:06.181Z,2.50
2019-05-13T03:25:36.176Z,2.53
2019-05-13T03:28:05.569Z,2.50
2019-05-13T03:30:35.795Z,2.25
2019-05-13T03:33:10.893Z,1.90
2019-05-13T03:35:37.244Z,2.07
2019-05-13T03:38:07.577Z,2.65
2019-05-13T03:40:42.580Z,2.50
2019-05-13T03:43:12.841Z,2.90
2019-05-13T03:45:43.437Z,2.40
2019-05-13T03:48:13.314Z,2.37
2019-05-13T03:53:18.827Z,2.63
2019-05-13T03:55:49.859Z,2.58
2019-05-13T03:58:19.221Z,2.43
2019-05-13T04:00:51.893Z,2.47
2019-05-13T04:03:22.782Z,2.77
2019-05-13T04:05:52.966Z,2.93
2019-05-13T04:08:23.141Z,2.47
2019-05-13T04:10:52.897Z,2.50
2019-05-13T04:13:23.417Z,2.33
2019-05-13T04:15:53.265Z,2.40
2019-05-13T04:18:23.720Z,2.73
2019-05-13T04:20:53.916Z,2.43
2019-05-13T04:23:23.553Z,3.07
2019-05-13T04:25:53.733Z,2.70
2019-05-13T04:28:23.352Z,2.60
2019-05-13T04:30:53.027Z,2.67
2019-05-13T04:33:23.268Z,2.60
2019-05-13T04:35:53.121Z,3.00
2019-05-13T04:38:23.128Z,3.10
2019-05-13T04:40:53.015Z,2.90
2019-05-13T04:43:23.680Z,3.07
2019-05-13T04:45:53.127Z,2.83
2019-05-13T04:48:23.042Z,2.90
2019-05-13T04:50:53.849Z,3.30
2019-05-13T04:53:23.309Z,2.50
2019-05-13T04:55:52.856Z,3.53
2019-05-13T04:58:23.561Z,3.37
2019-05-13T05:01:23.753Z,3.27
2019-05-13T05:03:59.005Z,3.12
2019-05-13T05:06:38.120Z,2.90
2019-05-13T05:09:12.619Z,3.50
2019-05-13T05:12:53.649Z,3.07
2019-05-13T05:15:52.267Z,2.80
2019-05-13T05:18:54.341Z,3.17
2019-05-13T05:21:28.221Z,2.77
2019-05-13T05:24:24.471Z,2.70
2019-05-13T05:27:25.264Z,3.27
2019-05-13T05:30:21.885Z,4.65
2019-05-13T05:33:35.424Z,3.10
2019-05-13T05:36:18.569Z,4.50
2019-05-13T05:39:05.250Z,4.80
2019-05-13T05:41:35.516Z,3.95
2019-05-13T05:44:05.354Z,3.75
2019-05-13T05:46:36.644Z,3.30
2019-05-13T05:49:12.698Z,3.20
2019-05-13T05:51:43.170Z,2.93
2019-05-13T05:54:14.832Z,2.97
2019-05-13T05:56:43.236Z,3.10
2019-05-13T05:59:12.577Z,4.43
2019-05-13T06:01:44.997Z,3.73
2019-05-13T06:06:52.032Z,3.50
2019-05-13T06:09:21.438Z,3.97
2019-05-13T06:11:52.217Z,3.80
2019-05-13T06:14:22.052Z,3.60
2019-05-13T06:16:52.121Z,3.30
2019-05-13T06:19:22.520Z,6.83
2019-05-13T06:21:52.788Z,4.87
2019-05-13T06:24:26.215Z,3.80
2019-05-13T06:26:52.839Z,3.25
2019-05-13T06:29:22.345Z,3.58
2019-05-13T06:31:52.144Z,3.07
2019-05-13T06:34:21.851Z,3.33
2019-05-13T06:36:52.362Z,3.20
2019-05-13T06:39:22.290Z,2.90
2019-05-13T06:41:52.155Z,2.90
2019-05-13T06:44:21.504Z,2.77
2019-05-13T06:46:56.340Z,3.40
2019-05-13T06:49:42.881Z,2.97
2019-05-13T06:52:12.246Z,2.53
2019-05-13T06:54:41.984Z,2.08
2019-05-13T06:57:13.469Z,3.00
2019-05-13T06:59:42.394Z,2.80
2019-05-13T07:02:12.431Z,2.80
2019-05-13T07:04:41.840Z,3.27
2019-05-13T07:07:16.219Z,2.33
2019-05-13T07:12:16.885Z,2.93
2019-05-13T07:14:46.176Z,2.80
2019-05-13T07:17:16.118Z,2.27
2019-05-13T07:19:47.188Z,2.83
2019-05-13T07:22:16.272Z,2.57
2019-05-13T07:24:45.412Z,2.33
2019-05-13T07:27:14.431Z,2.77
2019-05-13T07:29:43.869Z,2.50
2019-05-13T07:32:13.305Z,2.30
2019-05-13T07:34:44.018Z,2.70
2019-05-13T07:37:13.260Z,2.47
2019-05-13T07:39:42.974Z,2.27
2019-05-13T07:42:12.478Z,2.80
2019-05-13T07:44:41.848Z,2.77
2019-05-13T07:47:11.588Z,2.73
2019-05-13T07:49:41.962Z,2.50
2019-05-13T07:52:12.830Z,2.50
2019-05-13T07:54:46.158Z,2.30
2019-05-13T07:57:16.036Z,2.52
2019-05-13T07:59:46.407Z,2.97
2019-05-13T08:02:15.507Z,2.50
2019-05-13T08:04:44.609Z,3.43
2019-05-13T08:07:17.326Z,2.47
2019-05-13T08:09:46.228Z,2.93
2019-05-13T08:12:34.688Z,2.53
2019-05-13T08:17:44.310Z,1.90
2019-05-13T08:20:12.710Z,2.65
2019-05-13T08:22:42.606Z,2.90
2019-05-13T08:25:12.681Z,2.43
2019-05-13T08:27:42.239Z,2.63
2019-05-13T08:30:12.224Z,2.17
2019-05-13T08:32:42.025Z,2.30
2019-05-13T08:35:13.312Z,2.40
2019-05-13T08:37:45.968Z,2.10
2019-05-13T08:40:19.953Z,2.57
2019-05-13T08:42:48.149Z,2.00
2019-05-13T08:45:17.755Z,2.03
2019-05-13T08:47:47.057Z,2.20
2019-05-13T08:50:16.252Z,1.80
2019-05-13T08:52:45.760Z,2.17
2019-05-13T08:55:16.838Z,2.20
2019-05-13T08:57:45.949Z,2.40
2019-05-13T09:00:21.538Z,2.37
2019-05-13T09:02:52.248Z,2.13
2019-05-13T09:05:23.440Z,1.87
2019-05-13T09:07:52.464Z,2.40
2019-05-13T09:10:21.573Z,2.10
2019-05-13T09:12:52.205Z,2.17
2019-05-13T09:15:42.212Z,2.13
2019-05-13T09:18:11.850Z,2.30
2019-05-13T09:20:41.966Z,2.23
2019-05-13T09:23:11.880Z,2.30
2019-05-13T09:25:41.652Z,2.50
2019-05-13T09:28:12.486Z,2.27
2019-05-13T09:30:42.503Z,2.20
2019-05-13T09:33:12.074Z,1.67
2019-05-13T09:35:42.233Z,2.10
2019-05-13T09:38:12.702Z,2.03
2019-05-13T09:40:42.824Z,2.57
2019-05-13T09:43:11.911Z,2.20
2019-05-13T09:45:41.762Z,1.87
2019-05-13T09:48:12.919Z,2.07
2019-05-13T09:50:42.633Z,1.30
2019-05-13T09:53:11.804Z,2.00
2019-05-13T09:55:41.483Z,1.73
2019-05-13T09:58:11.879Z,1.90
2019-05-13T10:00:42.523Z,1.90
2019-05-13T10:03:13.525Z,1.63
2019-05-13T10:05:42.440Z,1.40
2019-05-13T10:08:12.531Z,1.67
2019-05-13T10:10:43.142Z,1.50
2019-05-13T10:13:15.402Z,1.30
2019-05-13T10:15:47.971Z,1.40
2019-05-13T10:18:17.099Z,1.93
2019-05-13T10:20:52.897Z,1.50
2019-05-13T10:23:22.189Z,1.33
2019-05-13T10:25:55.342Z,1.90
2019-05-13T10:31:01.003Z,2.03
2019-05-13T10:33:31.860Z,1.60
2019-05-13T10:36:03.382Z,1.63
2019-05-13T10:38:32.872Z,1.50
2019-05-13T10:43:43.305Z,1.73
2019-05-13T10:46:12.724Z,2.10
2019-05-13T10:48:41.653Z,1.60
2019-05-13T10:51:13.049Z,1.80
2019-05-13T10:53:42.777Z,1.70
2019-05-13T10:56:15.428Z,1.80
2019-05-13T10:58:44.754Z,1.83
2019-05-13T11:01:13.840Z,1.60
2019-05-13T11:03:43.078Z,2.07
2019-05-13T11:06:12.139Z,2.00
2019-05-13T11:08:42.199Z,1.73
2019-05-13T11:11:13.006Z,1.77
2019-05-13T11:13:55.271Z,1.80
2019-05-13T11:16:13.728Z,2.50
2019-05-13T11:18:43.308Z,2.00
2019-05-13T11:21:13.138Z,2.47
2019-05-13T11:23:42.220Z,2.00
2019-05-13T11:26:12.947Z,2.10
2019-05-13T11:28:43.179Z,2.13
2019-05-13T11:31:12.584Z,2.03
2019-05-13T11:33:42.510Z,2.40
2019-05-13T11:36:15.781Z,2.40
2019-05-13T11:38:43.519Z,2.27
2019-05-13T11:41:12.716Z,2.67
2019-05-13T11:43:42.695Z,2.13
2019-05-13T11:46:12.253Z,1.67
2019-05-13T11:48:42.610Z,2.22
2019-05-13T11:51:13.115Z,2.30
2019-05-13T11:53:42.505Z,2.20
2019-05-13T11:56:12.191Z,2.00
2019-05-13T11:58:43.171Z,2.27
2019-05-13T12:01:12.644Z,2.05
2019-05-13T12:03:43.516Z,1.73
2019-05-13T12:06:13.447Z,1.98
2019-05-13T12:08:50.281Z,1.75
2019-05-13T12:11:14.189Z,1.83
2019-05-13T12:13:43.784Z,1.60
2019-05-13T12:16:13.302Z,1.90
2019-05-13T12:18:43.888Z,1.30
2019-05-13T12:21:13.301Z,1.90
2019-05-13T12:23:42.891Z,1.63
2019-05-13T12:26:13.062Z,1.80
2019-05-13T12:28:42.284Z,1.60
2019-05-13T12:31:13.486Z,1.65
2019-05-13T12:33:44.095Z,1.90
2019-05-13T12:36:18.143Z,1.80
2019-05-13T12:38:44.919Z,1.87
2019-05-13T12:41:14.934Z,1.80
2019-05-13T12:43:44.328Z,1.97
2019-05-13T12:46:13.601Z,1.70
2019-05-13T12:48:43.539Z,1.80
2019-05-13T12:51:14.173Z,1.67
2019-05-13T12:53:47.514Z,1.67
2019-05-13T12:56:19.270Z,1.37
2019-05-13T12:58:51.903Z,1.70
2019-05-13T13:01:57.971Z,2.00
2019-05-13T13:04:23.686Z,1.67
2019-05-13T13:06:53.196Z,1.75
2019-05-13T13:09:22.728Z,1.50
2019-05-13T13:11:54.379Z,1.70
2019-05-13T13:14:22.804Z,1.57
2019-05-13T13:16:53.877Z,1.80
2019-05-13T13:19:23.444Z,1.67
2019-05-13T13:21:53.774Z,1.43
2019-05-13T13:24:23.720Z,1.57
2019-05-13T13:26:53.630Z,1.77
2019-05-13T13:29:23.464Z,2.10
2019-05-13T13:31:55.313Z,1.67
2019-05-13T13:34:26.055Z,1.90
2019-05-13T13:36:54.372Z,1.80
2019-05-13T13:39:25.183Z,1.85
2019-05-13T13:41:54.620Z,1.83
2019-05-13T13:44:25.225Z,1.90
2019-05-13T13:46:55.351Z,1.50
2019-05-13T13:49:24.528Z,1.67
2019-05-13T13:51:54.812Z,1.90
2019-05-13T13:54:24.243Z,2.10
2019-05-13T13:56:55.860Z,1.67
2019-05-13T13:59:25.195Z,1.80
2019-05-13T14:01:55.275Z,1.97
2019-05-13T14:04:24.764Z,2.00
2019-05-13T14:09:25.512Z,2.10
2019-05-13T14:11:56.441Z,1.63
2019-05-13T14:14:25.563Z,2.03
2019-05-13T14:16:54.638Z,1.80
2019-05-13T14:19:24.092Z,1.73
2019-05-13T14:21:53.633Z,1.70
2019-05-13T14:24:22.720Z,1.60
2019-05-13T14:26:52.885Z,1.80
2019-05-13T14:29:37.571Z,1.90
2019-05-13T14:31:54.103Z,1.97
2019-05-13T14:34:23.221Z,2.00
2019-05-13T14:36:53.037Z,1.97
2019-05-13T14:39:22.567Z,1.73
2019-05-13T14:41:52.048Z,1.63
2019-05-13T14:44:22.098Z,2.22
2019-05-13T14:46:52.342Z,1.98
2019-05-13T14:49:22.541Z,1.63
2019-05-13T14:51:56.220Z,1.60
2019-05-13T14:54:23.344Z,1.53
2019-05-13T14:56:53.512Z,1.60
2019-05-13T14:59:23.887Z,1.87
2019-05-13T15:01:53.290Z,1.90
2019-05-13T15:04:22.501Z,1.50
2019-05-13T15:06:54.776Z,1.63
2019-05-13T15:09:24.137Z,1.83
2019-05-13T15:11:53.511Z,1.97
2019-05-13T15:14:22.541Z,1.80
2019-05-13T15:17:02.395Z,2.03
2019-05-13T15:19:25.154Z,2.27
2019-05-13T15:21:54.684Z,1.87
2019-05-13T15:24:24.784Z,1.60
2019-05-13T15:26:54.013Z,2.00
2019-05-13T15:29:25.217Z,1.63
2019-05-13T15:31:54.769Z,2.33
2019-05-13T15:34:23.816Z,2.00
2019-05-13T15:36:54.715Z,1.57
2019-05-13T15:39:24.164Z,1.90
2019-05-13T15:41:53.263Z,1.90
2019-05-13T15:44:22.351Z,1.93
2019-05-13T15:46:52.328Z,1.87
2019-05-13T15:49:22.152Z,1.80
2019-05-13T15:51:51.335Z,1.80
2019-05-13T15:54:22.126Z,1.90
2019-05-13T15:56:51.376Z,1.73
2019-05-13T15:59:22.168Z,1.50
2019-05-13T16:01:52.539Z,1.60
2019-05-13T16:04:22.127Z,1.72
2019-05-13T16:06:52.170Z,1.60
2019-05-13T16:09:21.345Z,1.60
2019-05-13T16:11:52.166Z,1.40
2019-05-13T16:14:22.468Z,1.90
2019-05-13T16:16:51.608Z,1.80
2019-05-13T16:19:21.989Z,1.83
2019-05-13T16:21:51.899Z,1.50
2019-05-13T16:24:21.580Z,1.80
2019-05-13T16:26:52.214Z,1.37
2019-05-13T16:29:22.452Z,1.73
2019-05-13T16:31:52.041Z,1.60
2019-05-13T16:34:22.322Z,1.60
2019-05-13T16:36:53.056Z,1.57
2019-05-13T16:39:23.694Z,1.50
2019-05-13T16:41:52.832Z,1.50
2019-05-13T16:44:22.581Z,1.80
2019-05-13T16:46:51.716Z,1.70
2019-05-13T16:49:21.321Z,1.77
2019-05-13T16:51:52.103Z,1.70
2019-05-13T16:54:22.050Z,1.70
2019-05-13T16:56:51.903Z,1.90
2019-05-13T16:59:22.705Z,1.90
2019-05-13T17:01:53.003Z,1.45
2019-05-13T17:04:22.344Z,1.80
2019-05-13T17:06:53.220Z,1.60
2019-05-13T17:09:22.499Z,1.70
2019-05-13T17:11:52.589Z,1.70
2019-05-13T17:14:22.708Z,1.63
2019-05-13T17:17:07.679Z,1.87
2019-05-13T17:19:37.920Z,2.00
2019-05-13T17:22:08.048Z,1.30
2019-05-13T17:24:37.088Z,1.77
2019-05-13T17:27:06.516Z,1.30
2019-05-13T17:29:36.104Z,1.70
2019-05-13T17:32:05.485Z,1.70
2019-05-13T17:34:34.813Z,2.23
2019-05-13T17:37:04.465Z,1.50
2019-05-13T17:39:33.537Z,1.40
2019-05-13T17:42:03.180Z,1.50
2019-05-13T17:44:32.624Z,1.37
2019-05-13T17:47:02.189Z,1.50
2019-05-13T17:49:31.982Z,1.50
2019-05-13T17:52:02.438Z,1.87
2019-05-13T17:54:32.194Z,1.30
2019-05-13T17:57:02.003Z,1.60
2019-05-13T17:59:31.657Z,1.53
2019-05-13T18:02:02.590Z,1.80
2019-05-13T18:04:31.988Z,1.47
2019-05-13T18:07:01.681Z,1.60
2019-05-13T18:09:31.934Z,1.57
2019-05-13T18:12:02.435Z,1.73
2019-05-13T18:14:35.452Z,1.50
2019-05-13T18:17:04.623Z,1.73
2019-05-13T18:19:33.773Z,1.70
2019-05-13T18:22:03.132Z,1.80
2019-05-13T18:24:32.327Z,1.93
2019-05-13T18:27:02.258Z,1.67
2019-05-13T18:29:31.784Z,1.27
2019-05-13T18:32:02.105Z,1.83
2019-05-13T18:34:32.157Z,1.60
2019-05-13T18:37:02.664Z,1.60
2019-05-13T18:39:32.284Z,2.12
2019-05-13T18:42:01.751Z,1.60
2019-05-13T18:44:32.536Z,1.70
2019-05-13T18:47:01.818Z,1.87
2019-05-13T18:49:34.239Z,1.80
2019-05-13T18:52:03.573Z,1.83
2019-05-13T18:54:33.132Z,1.60
2019-05-13T18:57:02.206Z,1.87
2019-05-13T18:59:33.380Z,1.60
2019-05-13T19:02:02.476Z,1.80
2019-05-13T19:04:31.902Z,2.43
2019-05-13T19:07:02.276Z,1.67
2019-05-13T19:09:31.722Z,2.00
2019-05-13T19:12:01.486Z,1.70
2019-05-13T19:14:31.829Z,2.00
2019-05-13T19:17:01.519Z,2.10
2019-05-13T19:19:31.988Z,2.10
2019-05-13T19:22:02.165Z,1.70
2019-05-13T19:24:31.467Z,1.80
2019-05-13T19:27:01.696Z,2.10
2019-05-13T19:29:31.869Z,2.17
2019-05-13T19:32:01.876Z,1.70
2019-05-13T19:34:32.384Z,1.90
2019-05-13T19:37:02.550Z,1.90
2019-05-13T19:39:31.855Z,1.70
2019-05-13T19:42:01.124Z,2.00
2019-05-13T19:44:31.539Z,1.70
2019-05-13T19:47:01.897Z,1.83
2019-05-13T19:49:36.980Z,2.00
2019-05-13T19:52:06.066Z,1.87
2019-05-13T19:54:35.151Z,2.23
2019-05-13T19:57:04.266Z,2.00
2019-05-13T19:59:33.463Z,2.20
2019-05-13T20:02:02.516Z,2.67
2019-05-13T20:04:35.864Z,2.50
2019-05-13T20:07:05.687Z,3.63
2019-05-13T20:09:35.163Z,3.52
2019-05-13T20:12:04.273Z,3.20
2019-05-13T20:14:33.600Z,3.10
2019-05-13T20:17:02.832Z,2.58
2019-05-13T20:19:46.467Z,2.57
2019-05-13T20:22:04.572Z,2.50
2019-05-13T20:24:33.615Z,2.30
2019-05-13T20:27:02.776Z,2.20
2019-05-13T20:29:33.099Z,1.60
2019-05-13T20:32:02.140Z,1.73
2019-05-13T20:34:32.007Z,2.00
2019-05-13T20:37:02.318Z,2.33
2019-05-13T20:39:32.116Z,1.70
2019-05-13T20:42:01.860Z,1.90
2019-05-13T20:44:31.414Z,1.40
2019-05-13T20:47:01.534Z,1.73
2019-05-13T20:49:32.140Z,1.50
2019-05-13T20:52:01.355Z,1.40
2019-05-13T20:54:31.505Z,1.50
2019-05-13T20:57:02.011Z,1.20
2019-05-13T20:59:32.216Z,1.23
2019-05-13T21:02:02.341Z,1.30
2019-05-13T21:04:32.178Z,1.17
2019-05-13T21:07:03.465Z,1.40
2019-05-13T21:09:35.395Z,1.30
2019-05-13T21:12:04.788Z,1.43
2019-05-13T21:14:34.115Z,1.60
2019-05-13T21:17:03.230Z,1.53
2019-05-13T21:19:39.108Z,1.40
2019-05-13T21:22:03.772Z,1.13
2019-05-13T21:24:32.892Z,1.10
2019-05-13T21:27:02.587Z,1.10
2019-05-13T21:29:32.423Z,1.60
2019-05-13T21:32:01.597Z,1.37
2019-05-13T21:34:31.595Z,1.27
2019-05-13T21:37:02.350Z,1.30
2019-05-13T21:39:32.102Z,1.33
2019-05-13T21:42:02.390Z,1.35
2019-05-13T21:44:32.626Z,1.10
2019-05-13T21:47:02.354Z,1.40
2019-05-13T21:49:32.199Z,1.35
2019-05-13T21:52:01.948Z,1.23
2019-05-13T21:54:33.225Z,1.07
2019-05-13T21:57:02.221Z,1.23
2019-05-13T21:59:32.532Z,1.23
2019-05-13T22:02:03.093Z,1.50
2019-05-13T22:04:32.256Z,1.53
2019-05-13T22:07:01.635Z,1.27
2019-05-13T22:09:32.031Z,1.30
2019-05-13T22:12:04.385Z,1.47
2019-05-13T22:14:33.790Z,1.50
2019-05-13T22:17:03.048Z,1.40
2019-05-13T22:19:32.106Z,1.53
2019-05-13T22:22:02.842Z,1.37
2019-05-13T22:24:31.866Z,1.30
2019-05-13T22:27:02.022Z,1.23
2019-05-13T22:29:32.156Z,1.20
2019-05-13T22:32:02.065Z,1.73
2019-05-13T22:34:32.036Z,1.17
2019-05-13T22:37:02.450Z,1.10
2019-05-13T22:39:34.598Z,1.10
2019-05-13T22:42:02.393Z,1.23
2019-05-13T22:44:32.454Z,1.07
2019-05-13T22:47:02.426Z,1.47
2019-05-13T22:49:32.241Z,1.27
2019-05-13T22:52:01.593Z,1.20
2019-05-13T22:57:05.349Z,1.20
2019-05-13T22:59:34.368Z,1.50
2019-05-13T23:02:03.852Z,1.30
2019-05-13T23:04:33.189Z,1.30
2019-05-13T23:07:02.320Z,1.17
2019-05-13T23:09:32.316Z,1.20
2019-05-13T23:12:01.759Z,0.90
2019-05-13T23:14:32.128Z,1.10
2019-05-13T23:17:02.157Z,1.10
2019-05-13T23:19:32.338Z,1.03
2019-05-13T23:22:07.347Z,1.20
2019-05-13T23:24:36.511Z,1.37
2019-05-13T23:27:05.607Z,1.37
2019-05-13T23:29:37.844Z,1.15
2019-05-13T23:32:06.956Z,1.40
2019-05-13T23:34:36.001Z,1.37
2019-05-13T23:37:05.527Z,1.30
2019-05-13T23:39:34.588Z,1.30
2019-05-13T23:42:04.013Z,1.20
2019-05-13T23:44:35.019Z,1.53
2019-05-13T23:47:04.368Z,1.20
2019-05-13T23:49:35.043Z,1.30
2019-05-13T23:52:04.946Z,1.00
2019-05-13T23:54:34.527Z,1.27
2019-05-13T23:57:03.529Z,1.73
2019-05-13T23:59:33.337Z,1.50
